sensor_id;sensor_type;location;lat;lon;timestamp;P1;durP1;ratioP1;P2;durP2;ratioP2
56427;SDS011;42331;53.578;9.760;2023-12-07T00:00:36;102.27;;;31.23;;
56427;SDS011;42331;53.578;9.760;2023-12-07T00:03:07;83.13;;;24.17;;
56427;SDS011;42331;53.578;9.760;2023-12-07T00:05:38;105.67;;;30.30;;
56427;SDS011;42331;53.578;9.760;2023-12-07T00:08:10;93.20;;;28.48;;
56427;SDS011;42331;53.578;9.760;2023-12-07T00:10:41;94.88;;;29.00;;
56427;SDS011;42331;53.578;9.760;2023-12-07T00:13:12;92.53;;;28.77;;
56427;SDS011;42331;53.578;9.760;2023-12-07T00:15:43;89.07;;;28.00;;
56427;SDS011;42331;53.578;9.760;2023-12-07T00:18:14;102.07;;;30.30;;
56427;SDS011;42331;53.578;9.760;2023-12-07T00:20:46;98.28;;;29.85;;
56427;SDS011;42331;53.578;9.760;2023-12-07T00:23:17;83.63;;;25.52;;
56427;SDS011;42331;53.578;9.760;2023-12-07T00:25:48;91.40;;;27.50;;
56427;SDS011;42331;53.578;9.760;2023-12-07T00:28:19;95.28;;;28.15;;
56427;SDS011;42331;53.578;9.760;2023-12-07T00:30:50;84.83;;;28.27;;
56427;SDS011;42331;53.578;9.760;2023-12-07T00:33:21;94.38;;;28.27;;
56427;SDS011;42331;53.578;9.760;2023-12-07T00:35:52;72.57;;;21.08;;
56427;SDS011;42331;53.578;9.760;2023-12-07T00:38:23;87.83;;;27.00;;
56427;SDS011;42331;53.578;9.760;2023-12-07T00:40:55;96.53;;;28.83;;
56427;SDS011;42331;53.578;9.760;2023-12-07T00:43:26;97.37;;;27.30;;
56427;SDS011;42331;53.578;9.760;2023-12-07T00:45:57;90.70;;;26.57;;
56427;SDS011;42331;53.578;9.760;2023-12-07T00:48:28;89.37;;;27.30;;
56427;SDS011;42331;53.578;9.760;2023-12-07T00:50:59;87.97;;;28.03;;
56427;SDS011;42331;53.578;9.760;2023-12-07T00:53:30;69.23;;;19.73;;
56427;SDS011;42331;53.578;9.760;2023-12-07T00:56:02;73.20;;;20.87;;
56427;SDS011;42331;53.578;9.760;2023-12-07T00:58:33;92.75;;;26.70;;
56427;SDS011;42331;53.578;9.760;2023-12-07T01:01:04;83.77;;;25.63;;
56427;SDS011;42331;53.578;9.760;2023-12-07T01:03:35;88.43;;;26.83;;
56427;SDS011;42331;53.578;9.760;2023-12-07T01:06:07;83.47;;;25.17;;
56427;SDS011;42331;53.578;9.760;2023-12-07T01:08:38;82.28;;;24.88;;
56427;SDS011;42331;53.578;9.760;2023-12-07T01:11:09;90.07;;;26.23;;
56427;SDS011;42331;53.578;9.760;2023-12-07T01:13:40;83.03;;;25.80;;
56427;SDS011;42331;53.578;9.760;2023-12-07T01:16:11;57.07;;;18.80;;
56427;SDS011;42331;53.578;9.760;2023-12-07T01:18:42;71.43;;;23.63;;
56427;SDS011;42331;53.578;9.760;2023-12-07T01:21:14;78.45;;;23.75;;
56427;SDS011;42331;53.578;9.760;2023-12-07T01:23:45;77.37;;;26.17;;
56427;SDS011;42331;53.578;9.760;2023-12-07T01:26:16;76.63;;;25.73;;
56427;SDS011;42331;53.578;9.760;2023-12-07T01:28:47;49.10;;;18.77;;
56427;SDS011;42331;53.578;9.760;2023-12-07T01:31:18;71.40;;;24.53;;
56427;SDS011;42331;53.578;9.760;2023-12-07T01:33:49;82.25;;;25.85;;
56427;SDS011;42331;53.578;9.760;2023-12-07T01:36:20;77.80;;;24.97;;
56427;SDS011;42331;53.578;9.760;2023-12-07T01:38:51;77.73;;;25.27;;
56427;SDS011;42331;53.578;9.760;2023-12-07T01:41:22;74.17;;;24.67;;
56427;SDS011;42331;53.578;9.760;2023-12-07T01:43:54;80.60;;;26.00;;
56427;SDS011;42331;53.578;9.760;2023-12-07T01:46:25;70.00;;;25.13;;
56427;SDS011;42331;53.578;9.760;2023-12-07T01:48:56;69.53;;;24.45;;
56427;SDS011;42331;53.578;9.760;2023-12-07T01:51:27;49.20;;;17.90;;
56427;SDS011;42331;53.578;9.760;2023-12-07T01:53:58;70.63;;;24.98;;
56427;SDS011;42331;53.578;9.760;2023-12-07T01:56:29;76.47;;;25.63;;
56427;SDS011;42331;53.578;9.760;2023-12-07T01:59:01;63.97;;;23.02;;
56427;SDS011;42331;53.578;9.760;2023-12-07T02:01:32;65.78;;;22.83;;
56427;SDS011;42331;53.578;9.760;2023-12-07T02:04:03;77.03;;;25.48;;
56427;SDS011;42331;53.578;9.760;2023-12-07T02:06:34;65.07;;;22.63;;
56427;SDS011;42331;53.578;9.760;2023-12-07T02:09:05;61.60;;;22.70;;
56427;SDS011;42331;53.578;9.760;2023-12-07T02:11:36;68.97;;;24.60;;
56427;SDS011;42331;53.578;9.760;2023-12-07T02:14:07;70.20;;;24.58;;
56427;SDS011;42331;53.578;9.760;2023-12-07T02:21:56;66.63;;;23.00;;
56427;SDS011;42331;53.578;9.760;2023-12-07T02:24:29;62.50;;;23.73;;
56427;SDS011;42331;53.578;9.760;2023-12-07T02:27:04;61.47;;;25.08;;
56427;SDS011;42331;53.578;9.760;2023-12-07T02:29:35;71.87;;;26.80;;
56427;SDS011;42331;53.578;9.760;2023-12-07T02:32:06;49.03;;;17.67;;
56427;SDS011;42331;53.578;9.760;2023-12-07T02:34:37;58.87;;;24.10;;
56427;SDS011;42331;53.578;9.760;2023-12-07T02:37:08;61.70;;;23.80;;
56427;SDS011;42331;53.578;9.760;2023-12-07T02:39:41;59.42;;;23.42;;
56427;SDS011;42331;53.578;9.760;2023-12-07T02:42:13;61.63;;;23.27;;
56427;SDS011;42331;53.578;9.760;2023-12-07T02:44:44;65.18;;;22.08;;
56427;SDS011;42331;53.578;9.760;2023-12-07T02:47:16;61.58;;;22.15;;
56427;SDS011;42331;53.578;9.760;2023-12-07T02:49:47;66.88;;;25.27;;
56427;SDS011;42331;53.578;9.760;2023-12-07T02:52:18;70.30;;;25.73;;
56427;SDS011;42331;53.578;9.760;2023-12-07T02:54:50;59.03;;;22.67;;
56427;SDS011;42331;53.578;9.760;2023-12-07T02:57:21;58.03;;;22.13;;
56427;SDS011;42331;53.578;9.760;2023-12-07T02:59:52;64.93;;;23.80;;
56427;SDS011;42331;53.578;9.760;2023-12-07T03:02:23;41.63;;;16.80;;
56427;SDS011;42331;53.578;9.760;2023-12-07T03:04:54;55.50;;;22.08;;
56427;SDS011;42331;53.578;9.760;2023-12-07T03:07:25;56.95;;;21.80;;
56427;SDS011;42331;53.578;9.760;2023-12-07T03:09:56;57.60;;;23.13;;
56427;SDS011;42331;53.578;9.760;2023-12-07T03:12:27;52.92;;;21.13;;
56427;SDS011;42331;53.578;9.760;2023-12-07T03:15:01;52.15;;;20.55;;
56427;SDS011;42331;53.578;9.760;2023-12-07T03:17:32;63.00;;;21.42;;
56427;SDS011;42331;53.578;9.760;2023-12-07T03:20:04;41.20;;;16.75;;
56427;SDS011;42331;53.578;9.760;2023-12-07T03:22:35;52.63;;;21.08;;
56427;SDS011;42331;53.578;9.760;2023-12-07T03:25:06;50.33;;;22.10;;
56427;SDS011;42331;53.578;9.760;2023-12-07T03:27:38;51.28;;;21.40;;
56427;SDS011;42331;53.578;9.760;2023-12-07T03:30:09;54.53;;;21.60;;
56427;SDS011;42331;53.578;9.760;2023-12-07T03:32:43;55.15;;;21.25;;
56427;SDS011;42331;53.578;9.760;2023-12-07T03:35:14;53.95;;;20.98;;
56427;SDS011;42331;53.578;9.760;2023-12-07T03:37:47;50.38;;;20.80;;
56427;SDS011;42331;53.578;9.760;2023-12-07T03:40:19;43.67;;;19.35;;
56427;SDS011;42331;53.578;9.760;2023-12-07T03:42:50;51.97;;;21.93;;
56427;SDS011;42331;53.578;9.760;2023-12-07T03:45:21;48.23;;;20.03;;
56427;SDS011;42331;53.578;9.760;2023-12-07T03:47:52;48.92;;;20.25;;
56427;SDS011;42331;53.578;9.760;2023-12-07T03:50:23;47.72;;;21.05;;
56427;SDS011;42331;53.578;9.760;2023-12-07T03:53:00;51.75;;;21.13;;
56427;SDS011;42331;53.578;9.760;2023-12-07T03:55:35;49.90;;;20.80;;
56427;SDS011;42331;53.578;9.760;2023-12-07T03:58:10;49.84;;;20.38;;
56427;SDS011;42331;53.578;9.760;2023-12-07T04:00:45;45.53;;;19.40;;
56427;SDS011;42331;53.578;9.760;2023-12-07T04:03:19;48.72;;;20.23;;
56427;SDS011;42331;53.578;9.760;2023-12-07T04:05:51;50.72;;;21.38;;
56427;SDS011;42331;53.578;9.760;2023-12-07T04:08:25;50.75;;;21.52;;
56427;SDS011;42331;53.578;9.760;2023-12-07T04:10:58;46.53;;;20.17;;
56427;SDS011;42331;53.578;9.760;2023-12-07T04:13:36;50.33;;;19.88;;
56427;SDS011;42331;53.578;9.760;2023-12-07T04:16:08;53.97;;;21.52;;
56427;SDS011;42331;53.578;9.760;2023-12-07T04:18:42;48.55;;;20.58;;
56427;SDS011;42331;53.578;9.760;2023-12-07T04:21:13;53.38;;;20.77;;
56427;SDS011;42331;53.578;9.760;2023-12-07T04:23:49;48.42;;;20.95;;
56427;SDS011;42331;53.578;9.760;2023-12-07T04:26:23;49.47;;;19.45;;
56427;SDS011;42331;53.578;9.760;2023-12-07T04:28:55;50.15;;;19.70;;
56427;SDS011;42331;53.578;9.760;2023-12-07T04:31:31;45.60;;;20.08;;
56427;SDS011;42331;53.578;9.760;2023-12-07T04:34:02;45.20;;;20.30;;
56427;SDS011;42331;53.578;9.760;2023-12-07T04:36:33;53.20;;;21.20;;
56427;SDS011;42331;53.578;9.760;2023-12-07T04:39:04;49.07;;;20.63;;
56427;SDS011;42331;53.578;9.760;2023-12-07T04:41:35;41.35;;;15.52;;
56427;SDS011;42331;53.578;9.760;2023-12-07T04:44:06;47.47;;;21.33;;
56427;SDS011;42331;53.578;9.760;2023-12-07T04:46:38;52.30;;;21.00;;
56427;SDS011;42331;53.578;9.760;2023-12-07T04:49:09;38.72;;;15.00;;
56427;SDS011;42331;53.578;9.760;2023-12-07T04:51:40;51.37;;;20.97;;
56427;SDS011;42331;53.578;9.760;2023-12-07T04:54:12;48.78;;;20.00;;
56427;SDS011;42331;53.578;9.760;2023-12-07T04:56:44;50.33;;;21.33;;
56427;SDS011;42331;53.578;9.760;2023-12-07T04:59:18;49.40;;;20.67;;
56427;SDS011;42331;53.578;9.760;2023-12-07T05:01:50;38.03;;;15.53;;
56427;SDS011;42331;53.578;9.760;2023-12-07T05:04:21;51.23;;;21.50;;
56427;SDS011;42331;53.578;9.760;2023-12-07T05:06:52;47.27;;;21.20;;
56427;SDS011;42331;53.578;9.760;2023-12-07T05:09:23;49.83;;;20.63;;
56427;SDS011;42331;53.578;9.760;2023-12-07T05:11:57;53.03;;;20.55;;
56427;SDS011;42331;53.578;9.760;2023-12-07T05:14:31;55.70;;;22.77;;
56427;SDS011;42331;53.578;9.760;2023-12-07T05:17:05;48.40;;;21.70;;
56427;SDS011;42331;53.578;9.760;2023-12-07T05:19:43;54.17;;;21.35;;
56427;SDS011;42331;53.578;9.760;2023-12-07T05:22:14;57.08;;;23.20;;
56427;SDS011;42331;53.578;9.760;2023-12-07T05:24:45;37.57;;;16.43;;
56427;SDS011;42331;53.578;9.760;2023-12-07T05:27:17;49.90;;;20.90;;
56427;SDS011;42331;53.578;9.760;2023-12-07T05:29:48;53.27;;;22.50;;
56427;SDS011;42331;53.578;9.760;2023-12-07T05:32:19;48.60;;;21.02;;
56427;SDS011;42331;53.578;9.760;2023-12-07T05:34:50;48.97;;;21.20;;
56427;SDS011;42331;53.578;9.760;2023-12-07T05:37:21;53.40;;;22.40;;
56427;SDS011;42331;53.578;9.760;2023-12-07T05:39:52;51.92;;;22.23;;
56427;SDS011;42331;53.578;9.760;2023-12-07T05:42:23;53.57;;;24.63;;
56427;SDS011;42331;53.578;9.760;2023-12-07T05:44:54;51.57;;;23.10;;
56427;SDS011;42331;53.578;9.760;2023-12-07T05:47:26;49.63;;;21.65;;
56427;SDS011;42331;53.578;9.760;2023-12-07T05:50:00;52.55;;;22.67;;
56427;SDS011;42331;53.578;9.760;2023-12-07T05:52:33;45.50;;;21.83;;
56427;SDS011;42331;53.578;9.760;2023-12-07T05:55:04;54.83;;;23.83;;
56427;SDS011;42331;53.578;9.760;2023-12-07T05:57:39;55.13;;;23.75;;
56427;SDS011;42331;53.578;9.760;2023-12-07T06:00:16;45.22;;;21.33;;
56427;SDS011;42331;53.578;9.760;2023-12-07T06:02:49;47.00;;;21.98;;
56427;SDS011;42331;53.578;9.760;2023-12-07T06:05:20;47.25;;;22.67;;
56427;SDS011;42331;53.578;9.760;2023-12-07T06:07:51;52.83;;;23.42;;
56427;SDS011;42331;53.578;9.760;2023-12-07T06:10:24;50.92;;;21.63;;
56427;SDS011;42331;53.578;9.760;2023-12-07T06:12:55;52.80;;;23.77;;
56427;SDS011;42331;53.578;9.760;2023-12-07T06:15:48;48.78;;;22.58;;
56427;SDS011;42331;53.578;9.760;2023-12-07T06:18:20;49.92;;;23.08;;
56427;SDS011;42331;53.578;9.760;2023-12-07T06:20:52;47.45;;;21.02;;
56427;SDS011;42331;53.578;9.760;2023-12-07T06:23:23;48.07;;;23.60;;
56427;SDS011;42331;53.578;9.760;2023-12-07T06:25:54;52.97;;;22.87;;
56427;SDS011;42331;53.578;9.760;2023-12-07T06:28:25;55.03;;;23.77;;
56427;SDS011;42331;53.578;9.760;2023-12-07T06:30:57;43.25;;;20.30;;
56427;SDS011;42331;53.578;9.760;2023-12-07T06:33:28;54.97;;;23.13;;
56427;SDS011;42331;53.578;9.760;2023-12-07T06:35:59;46.33;;;21.43;;
56427;SDS011;42331;53.578;9.760;2023-12-07T06:38:30;47.97;;;21.77;;
56427;SDS011;42331;53.578;9.760;2023-12-07T06:41:05;46.80;;;22.60;;
56427;SDS011;42331;53.578;9.760;2023-12-07T06:43:36;49.07;;;22.97;;
56427;SDS011;42331;53.578;9.760;2023-12-07T06:46:07;46.13;;;22.27;;
56427;SDS011;42331;53.578;9.760;2023-12-07T06:48:38;44.97;;;21.80;;
56427;SDS011;42331;53.578;9.760;2023-12-07T06:51:09;33.37;;;16.60;;
56427;SDS011;42331;53.578;9.760;2023-12-07T06:53:41;53.88;;;23.52;;
56427;SDS011;42331;53.578;9.760;2023-12-07T06:56:12;45.70;;;23.50;;
56427;SDS011;42331;53.578;9.760;2023-12-07T06:58:43;39.97;;;18.08;;
56427;SDS011;42331;53.578;9.760;2023-12-07T07:01:14;34.63;;;17.52;;
56427;SDS011;42331;53.578;9.760;2023-12-07T07:03:45;48.03;;;22.23;;
56427;SDS011;42331;53.578;9.760;2023-12-07T07:06:16;47.13;;;22.85;;
56427;SDS011;42331;53.578;9.760;2023-12-07T07:08:48;46.28;;;21.60;;
56427;SDS011;42331;53.578;9.760;2023-12-07T07:11:19;44.05;;;23.13;;
56427;SDS011;42331;53.578;9.760;2023-12-07T07:13:50;49.50;;;22.40;;
56427;SDS011;42331;53.578;9.760;2023-12-07T07:16:21;44.80;;;21.67;;
56427;SDS011;42331;53.578;9.760;2023-12-07T07:18:52;41.40;;;20.47;;
56427;SDS011;42331;53.578;9.760;2023-12-07T07:21:23;30.10;;;15.47;;
56427;SDS011;42331;53.578;9.760;2023-12-07T07:23:54;47.40;;;22.43;;
56427;SDS011;42331;53.578;9.760;2023-12-07T07:28:57;42.13;;;21.58;;
56427;SDS011;42331;53.578;9.760;2023-12-07T07:31:29;41.90;;;21.40;;
56427;SDS011;42331;53.578;9.760;2023-12-07T07:34:00;41.97;;;21.50;;
56427;SDS011;42331;53.578;9.760;2023-12-07T07:36:31;44.13;;;21.47;;
56427;SDS011;42331;53.578;9.760;2023-12-07T07:39:02;41.83;;;22.08;;
56427;SDS011;42331;53.578;9.760;2023-12-07T07:41:37;43.75;;;21.23;;
56427;SDS011;42331;53.578;9.760;2023-12-07T07:44:08;41.80;;;20.47;;
56427;SDS011;42331;53.578;9.760;2023-12-07T07:46:42;44.50;;;22.20;;
56427;SDS011;42331;53.578;9.760;2023-12-07T07:49:13;46.10;;;21.63;;
56427;SDS011;42331;53.578;9.760;2023-12-07T07:51:45;47.10;;;21.77;;
56427;SDS011;42331;53.578;9.760;2023-12-07T07:54:16;42.40;;;20.63;;
56427;SDS011;42331;53.578;9.760;2023-12-07T07:56:47;43.00;;;22.73;;
56427;SDS011;42331;53.578;9.760;2023-12-07T07:59:18;42.78;;;22.42;;
56427;SDS011;42331;53.578;9.760;2023-12-07T08:01:50;46.55;;;22.67;;
56427;SDS011;42331;53.578;9.760;2023-12-07T08:04:24;43.92;;;22.38;;
56427;SDS011;42331;53.578;9.760;2023-12-07T08:06:55;43.47;;;21.87;;
56427;SDS011;42331;53.578;9.760;2023-12-07T08:09:26;48.60;;;21.90;;
56427;SDS011;42331;53.578;9.760;2023-12-07T08:11:57;42.47;;;21.93;;
56427;SDS011;42331;53.578;9.760;2023-12-07T08:14:28;45.67;;;22.77;;
56427;SDS011;42331;53.578;9.760;2023-12-07T08:16:59;44.90;;;23.20;;
56427;SDS011;42331;53.578;9.760;2023-12-07T08:19:30;47.47;;;23.57;;
56427;SDS011;42331;53.578;9.760;2023-12-07T08:22:01;45.10;;;23.23;;
56427;SDS011;42331;53.578;9.760;2023-12-07T08:24:32;35.80;;;16.98;;
56427;SDS011;42331;53.578;9.760;2023-12-07T08:27:03;44.30;;;23.17;;
56427;SDS011;42331;53.578;9.760;2023-12-07T08:29:35;38.05;;;17.85;;
56427;SDS011;42331;53.578;9.760;2023-12-07T08:32:06;44.45;;;22.08;;
56427;SDS011;42331;53.578;9.760;2023-12-07T08:34:37;46.73;;;23.97;;
56427;SDS011;42331;53.578;9.760;2023-12-07T08:37:08;48.20;;;23.37;;
56427;SDS011;42331;53.578;9.760;2023-12-07T08:39:39;51.17;;;23.10;;
56427;SDS011;42331;53.578;9.760;2023-12-07T08:42:11;48.27;;;23.60;;
56427;SDS011;42331;53.578;9.760;2023-12-07T08:44:42;52.97;;;23.65;;
56427;SDS011;42331;53.578;9.760;2023-12-07T08:47:14;53.13;;;23.55;;
56427;SDS011;42331;53.578;9.760;2023-12-07T08:49:45;65.90;;;24.03;;
56427;SDS011;42331;53.578;9.760;2023-12-07T08:52:16;116.68;;;23.70;;
56427;SDS011;42331;53.578;9.760;2023-12-07T08:54:48;56.83;;;22.15;;
56427;SDS011;42331;53.578;9.760;2023-12-07T08:57:19;60.70;;;23.37;;
56427;SDS011;42331;53.578;9.760;2023-12-07T08:59:50;222.90;;;25.33;;
56427;SDS011;42331;53.578;9.760;2023-12-07T09:02:21;145.30;;;25.37;;
56427;SDS011;42331;53.578;9.760;2023-12-07T09:04:52;221.88;;;24.20;;
56427;SDS011;42331;53.578;9.760;2023-12-07T09:07:23;79.73;;;21.83;;
56427;SDS011;42331;53.578;9.760;2023-12-07T09:09:54;88.57;;;23.03;;
56427;SDS011;42331;53.578;9.760;2023-12-07T09:12:25;82.37;;;22.83;;
56427;SDS011;42331;53.578;9.760;2023-12-07T09:14:59;74.30;;;20.83;;
56427;SDS011;42331;53.578;9.760;2023-12-07T09:17:31;187.00;;;23.35;;
56427;SDS011;42331;53.578;9.760;2023-12-07T09:20:02;102.37;;;21.63;;
56427;SDS011;42331;53.578;9.760;2023-12-07T09:22:34;91.13;;;21.02;;
56427;SDS011;42331;53.578;9.760;2023-12-07T09:25:05;99.23;;;17.03;;
56427;SDS011;42331;53.578;9.760;2023-12-07T09:27:38;92.15;;;20.27;;
56427;SDS011;42331;53.578;9.760;2023-12-07T09:30:09;99.55;;;20.75;;
56427;SDS011;42331;53.578;9.760;2023-12-07T09:32:49;80.97;;;20.88;;
56427;SDS011;42331;53.578;9.760;2023-12-07T09:35:20;47.70;;;21.70;;
56427;SDS011;42331;53.578;9.760;2023-12-07T09:37:51;221.10;;;22.95;;
56427;SDS011;42331;53.578;9.760;2023-12-07T09:40:23;154.60;;;17.57;;
56427;SDS011;42331;53.578;9.760;2023-12-07T09:42:55;121.05;;;21.55;;
56427;SDS011;42331;53.578;9.760;2023-12-07T09:45:26;148.00;;;21.70;;
56427;SDS011;42331;53.578;9.760;2023-12-07T09:47:59;156.07;;;21.00;;
56427;SDS011;42331;53.578;9.760;2023-12-07T09:50:30;117.20;;;20.52;;
56427;SDS011;42331;53.578;9.760;2023-12-07T09:53:01;47.58;;;18.05;;
56427;SDS011;42331;53.578;9.760;2023-12-07T09:55:32;63.47;;;20.48;;
56427;SDS011;42331;53.578;9.760;2023-12-07T09:58:04;59.13;;;18.95;;
56427;SDS011;42331;53.578;9.760;2023-12-07T10:00:35;33.78;;;14.57;;
56427;SDS011;42331;53.578;9.760;2023-12-07T10:03:07;39.20;;;19.42;;
56427;SDS011;42331;53.578;9.760;2023-12-07T10:05:55;56.22;;;18.10;;
56427;SDS011;42331;53.578;9.760;2023-12-07T10:08:30;94.45;;;19.30;;
56427;SDS011;42331;53.578;9.760;2023-12-07T10:11:08;36.95;;;17.52;;
56427;SDS011;42331;53.578;9.760;2023-12-07T10:13:40;81.03;;;19.50;;
56427;SDS011;42331;53.578;9.760;2023-12-07T10:16:12;43.33;;;13.43;;
56427;SDS011;42331;53.578;9.760;2023-12-07T10:18:44;36.10;;;17.55;;
56427;SDS011;42331;53.578;9.760;2023-12-07T10:21:15;46.07;;;19.30;;
56427;SDS011;42331;53.578;9.760;2023-12-07T10:23:47;83.03;;;19.40;;
56427;SDS011;42331;53.578;9.760;2023-12-07T10:26:18;45.50;;;18.93;;
56427;SDS011;42331;53.578;9.760;2023-12-07T10:28:50;44.65;;;18.85;;
56427;SDS011;42331;53.578;9.760;2023-12-07T10:31:24;40.05;;;19.10;;
56427;SDS011;42331;53.578;9.760;2023-12-07T10:33:56;44.67;;;19.52;;
56427;SDS011;42331;53.578;9.760;2023-12-07T10:36:27;68.77;;;22.07;;
56427;SDS011;42331;53.578;9.760;2023-12-07T10:38:58;61.57;;;21.90;;
56427;SDS011;42331;53.578;9.760;2023-12-07T10:41:29;73.63;;;22.30;;
56427;SDS011;42331;53.578;9.760;2023-12-07T10:44:01;33.93;;;16.10;;
56427;SDS011;42331;53.578;9.760;2023-12-07T10:46:32;53.25;;;22.10;;
56427;SDS011;42331;53.578;9.760;2023-12-07T10:49:04;50.92;;;21.63;;
56427;SDS011;42331;53.578;9.760;2023-12-07T10:51:48;50.70;;;21.75;;
56427;SDS011;42331;53.578;9.760;2023-12-07T10:54:22;81.57;;;21.90;;
56427;SDS011;42331;53.578;9.760;2023-12-07T10:56:53;45.22;;;19.83;;
56427;SDS011;42331;53.578;9.760;2023-12-07T10:59:24;46.08;;;20.45;;
56427;SDS011;42331;53.578;9.760;2023-12-07T11:01:56;41.70;;;19.63;;
56427;SDS011;42331;53.578;9.760;2023-12-07T11:07:00;68.27;;;20.10;;
56427;SDS011;42331;53.578;9.760;2023-12-07T11:09:35;41.83;;;18.85;;
56427;SDS011;42331;53.578;9.760;2023-12-07T11:12:10;36.95;;;18.77;;
56427;SDS011;42331;53.578;9.760;2023-12-07T11:14:43;39.00;;;18.55;;
56427;SDS011;42331;53.578;9.760;2023-12-07T11:17:14;43.58;;;19.55;;
56427;SDS011;42331;53.578;9.760;2023-12-07T11:19:46;37.92;;;18.60;;
56427;SDS011;42331;53.578;9.760;2023-12-07T11:22:17;42.13;;;19.02;;
56427;SDS011;42331;53.578;9.760;2023-12-07T11:24:52;39.40;;;18.50;;
56427;SDS011;42331;53.578;9.760;2023-12-07T11:27:24;37.60;;;17.98;;
56427;SDS011;42331;53.578;9.760;2023-12-07T11:32:27;35.38;;;18.45;;
56427;SDS011;42331;53.578;9.760;2023-12-07T11:35:04;37.42;;;18.23;;
56427;SDS011;42331;53.578;9.760;2023-12-07T11:40:25;39.30;;;17.58;;
56427;SDS011;42331;53.578;9.760;2023-12-07T11:42:56;32.78;;;14.43;;
56427;SDS011;42331;53.578;9.760;2023-12-07T11:45:40;40.70;;;19.77;;
56427;SDS011;42331;53.578;9.760;2023-12-07T11:48:13;41.42;;;19.55;;
56427;SDS011;42331;53.578;9.760;2023-12-07T11:51:06;41.78;;;19.30;;
56427;SDS011;42331;53.578;9.760;2023-12-07T11:53:37;39.30;;;19.17;;
56427;SDS011;42331;53.578;9.760;2023-12-07T11:56:09;40.37;;;19.73;;
56427;SDS011;42331;53.578;9.760;2023-12-07T11:58:41;40.30;;;18.10;;
56427;SDS011;42331;53.578;9.760;2023-12-07T12:01:12;43.50;;;19.30;;
56427;SDS011;42331;53.578;9.760;2023-12-07T12:03:43;38.33;;;18.90;;
56427;SDS011;42331;53.578;9.760;2023-12-07T12:06:14;42.20;;;19.43;;
56427;SDS011;42331;53.578;9.760;2023-12-07T12:08:45;31.73;;;14.60;;
56427;SDS011;42331;53.578;9.760;2023-12-07T12:11:16;38.47;;;17.92;;
56427;SDS011;42331;53.578;9.760;2023-12-07T12:13:48;43.50;;;19.95;;
56427;SDS011;42331;53.578;9.760;2023-12-07T12:16:20;36.95;;;18.15;;
56427;SDS011;42331;53.578;9.760;2023-12-07T12:18:51;44.97;;;19.23;;
56427;SDS011;42331;53.578;9.760;2023-12-07T12:21:22;36.57;;;18.20;;
56427;SDS011;42331;53.578;9.760;2023-12-07T12:23:53;29.92;;;13.48;;
56427;SDS011;42331;53.578;9.760;2023-12-07T12:26:24;28.07;;;14.40;;
56427;SDS011;42331;53.578;9.760;2023-12-07T12:28:55;39.00;;;18.17;;
56427;SDS011;42331;53.578;9.760;2023-12-07T12:31:26;38.30;;;17.60;;
56427;SDS011;42331;53.578;9.760;2023-12-07T12:33:57;41.53;;;19.93;;
56427;SDS011;42331;53.578;9.760;2023-12-07T12:36:30;35.80;;;17.98;;
56427;SDS011;42331;53.578;9.760;2023-12-07T12:39:01;29.17;;;14.13;;
56427;SDS011;42331;53.578;9.760;2023-12-07T12:41:34;36.40;;;17.65;;
56427;SDS011;42331;53.578;9.760;2023-12-07T12:44:05;36.07;;;17.43;;
56427;SDS011;42331;53.578;9.760;2023-12-07T12:46:36;41.60;;;19.05;;
56427;SDS011;42331;53.578;9.760;2023-12-07T12:49:07;38.30;;;18.55;;
56427;SDS011;42331;53.578;9.760;2023-12-07T12:51:38;25.90;;;13.10;;
56427;SDS011;42331;53.578;9.760;2023-12-07T12:54:09;38.35;;;19.15;;
56427;SDS011;42331;53.578;9.760;2023-12-07T12:56:41;37.03;;;17.58;;
56427;SDS011;42331;53.578;9.760;2023-12-07T12:59:13;38.45;;;18.55;;
56427;SDS011;42331;53.578;9.760;2023-12-07T13:01:45;39.37;;;19.17;;
56427;SDS011;42331;53.578;9.760;2023-12-07T13:04:16;38.80;;;19.17;;
56427;SDS011;42331;53.578;9.760;2023-12-07T13:06:47;44.70;;;20.27;;
56427;SDS011;42331;53.578;9.760;2023-12-07T13:09:18;29.20;;;14.10;;
56427;SDS011;42331;53.578;9.760;2023-12-07T13:11:51;40.83;;;19.48;;
56427;SDS011;42331;53.578;9.760;2023-12-07T13:14:22;32.20;;;14.87;;
56427;SDS011;42331;53.578;9.760;2023-12-07T13:16:53;43.17;;;20.03;;
56427;SDS011;42331;53.578;9.760;2023-12-07T13:19:24;40.05;;;20.05;;
56427;SDS011;42331;53.578;9.760;2023-12-07T13:21:55;41.67;;;19.60;;
56427;SDS011;42331;53.578;9.760;2023-12-07T13:24:26;41.47;;;18.95;;
56427;SDS011;42331;53.578;9.760;2023-12-07T13:26:57;45.37;;;20.70;;
56427;SDS011;42331;53.578;9.760;2023-12-07T13:29:30;40.83;;;18.73;;
56427;SDS011;42331;53.578;9.760;2023-12-07T13:32:02;46.80;;;19.63;;
56427;SDS011;42331;53.578;9.760;2023-12-07T13:34:33;46.35;;;19.90;;
56427;SDS011;42331;53.578;9.760;2023-12-07T13:37:04;31.52;;;15.25;;
56427;SDS011;42331;53.578;9.760;2023-12-07T13:39:35;48.03;;;21.23;;
56427;SDS011;42331;53.578;9.760;2023-12-07T13:42:06;43.65;;;19.83;;
56427;SDS011;42331;53.578;9.760;2023-12-07T13:44:38;39.08;;;19.10;;
56427;SDS011;42331;53.578;9.760;2023-12-07T13:47:09;49.37;;;20.23;;
56427;SDS011;42331;53.578;9.760;2023-12-07T13:49:40;43.80;;;20.20;;
56427;SDS011;42331;53.578;9.760;2023-12-07T13:52:12;44.63;;;20.77;;
56427;SDS011;42331;53.578;9.760;2023-12-07T13:54:46;41.90;;;19.65;;
56427;SDS011;42331;53.578;9.760;2023-12-07T13:57:19;38.92;;;19.20;;
56427;SDS011;42331;53.578;9.760;2023-12-07T13:59:54;39.33;;;18.70;;
56427;SDS011;42331;53.578;9.760;2023-12-07T14:02:25;40.25;;;19.10;;
56427;SDS011;42331;53.578;9.760;2023-12-07T14:04:57;41.00;;;19.92;;
56427;SDS011;42331;53.578;9.760;2023-12-07T14:07:28;42.45;;;20.08;;
56427;SDS011;42331;53.578;9.760;2023-12-07T14:09:59;42.58;;;20.77;;
56427;SDS011;42331;53.578;9.760;2023-12-07T14:12:30;41.97;;;20.55;;
56427;SDS011;42331;53.578;9.760;2023-12-07T14:15:03;41.70;;;19.77;;
56427;SDS011;42331;53.578;9.760;2023-12-07T14:17:34;30.90;;;15.00;;
56427;SDS011;42331;53.578;9.760;2023-12-07T14:20:08;42.85;;;20.27;;
56427;SDS011;42331;53.578;9.760;2023-12-07T14:22:40;39.88;;;18.92;;
56427;SDS011;42331;53.578;9.760;2023-12-07T14:25:11;43.73;;;19.77;;
56427;SDS011;42331;53.578;9.760;2023-12-07T14:27:42;40.97;;;20.10;;
56427;SDS011;42331;53.578;9.760;2023-12-07T14:30:13;30.47;;;14.43;;
56427;SDS011;42331;53.578;9.760;2023-12-07T14:32:46;41.38;;;19.67;;
56427;SDS011;42331;53.578;9.760;2023-12-07T14:35:21;42.38;;;19.23;;
56427;SDS011;42331;53.578;9.760;2023-12-07T14:37:53;38.83;;;19.15;;
56427;SDS011;42331;53.578;9.760;2023-12-07T14:40:24;45.20;;;19.57;;
56427;SDS011;42331;53.578;9.760;2023-12-07T14:42:55;41.40;;;19.77;;
56427;SDS011;42331;53.578;9.760;2023-12-07T14:45:27;40.30;;;19.98;;
56427;SDS011;42331;53.578;9.760;2023-12-07T14:47:58;45.33;;;20.50;;
56427;SDS011;42331;53.578;9.760;2023-12-07T14:50:29;48.90;;;19.47;;
56427;SDS011;42331;53.578;9.760;2023-12-07T14:53:00;48.70;;;20.80;;
56427;SDS011;42331;53.578;9.760;2023-12-07T14:55:31;43.57;;;18.90;;
56427;SDS011;42331;53.578;9.760;2023-12-07T14:58:02;41.97;;;19.63;;
56427;SDS011;42331;53.578;9.760;2023-12-07T15:00:33;34.70;;;14.37;;
56427;SDS011;42331;53.578;9.760;2023-12-07T15:03:04;40.97;;;19.87;;